Ana Sayfa
METAR-TAF:

METAR-TAF

Havaalanları :

Los Alamos, New Mexico, Amerika Birleşik Devletleri

Enlem: 35-53N, Boylam: 106-17W, yükseklik: 2179 m

Güncel hava durumu gözlemi

Rapor saat 21:35 UTC de 11 dakika önce yapıldı.
Rüzgar batıdan 20 kt ve 32 kt'a kadar ani rüzgarlar
Sıcaklık 7°C
Nem 31%
Basınç 1015 hPa
Görüş mesafesi: 16.1 km
4800 ft yükseklikte parçalı bulutlu
6500 ft yükseklikte parçalı çok bulutlu

METAR: KLAM 242135Z AUTO 27020G32KT 10SM SCT048 BKN065 07/M09 A2996 RMK AO2 T00661089

Saat: 14:46 (21:46 UTC)


TAF: eksik

4.000'den fazla havaalanı için hava durumu gözlemleri ve tahminleri (METAR ve TAF raporları).

Kullanılabilir istasyonlar harita üzerinde sarı ve kırmızı noktalarla gösterilir.

İstasyonun adını görmek için fareyi noktanın üzerinde gezdirin.

Sonrasında hava gözlem ve tahminlerini görmek için tıklayın.

Haritayı değiştirmek için: yaklaştırmak için siyah artı işaretli yeşil düğmeye ve uzaklaştırmak için de eksi işaretli düğmeye hızla tıklayın; bitişik haritalar için yeşil okları kullanın.


METAR-TAF: